Time;durP1;ratioP1;P1;durP2;ratioP2;P2;SDS_P1;SDS_P2;PMS_P1;PMS_P2;Temp;Humidity;BMP_temperature;BMP_pressure;BME280_temperature;BME280_humidity;BME280_pressure;Samples;Min_cycle;Max_cycle;Signal;HPM_P1;HPM_P2
2022/11/09 00:01:17;;;;;;;7.20;4.00;;;;;;;;;;5073827;28;20181;-71
2022/11/09 00:03:43;;;;;;;5.20;3.37;;;;;;;;;;5074077;28;20599;-71
2022/11/09 00:06:09;;;;;;;4.87;3.57;;;;;;;;;;5073832;28;20188;-71
2022/11/09 00:08:38;;;;;;;7.67;3.40;;;;;;;;;;5075316;28;20216;-71
2022/11/09 00:11:06;;;;;;;4.57;3.00;;;;;;;;;;5078172;28;20254;-71
2022/11/09 00:13:35;;;;;;;5.57;2.60;;;;;;;;;;5060382;28;20193;-71
2022/11/09 00:16:01;;;;;;;6.07;2.70;;;;;;;;;;5062327;28;20174;-71
2022/11/09 00:18:27;;;;;;;5.03;2.80;;;;;;;;;;5060847;28;20322;-71
2022/11/09 00:20:53;;;;;;;5.37;2.93;;;;;;;;;;5080486;28;20653;-70
2022/11/09 00:23:20;;;;;;;4.30;2.67;;;;;;;;;;5060367;28;20209;-71
2022/11/09 00:25:46;;;;;;;4.90;2.80;;;;;;;;;;5079390;28;20227;-71
2022/11/09 00:28:12;;;;;;;5.10;3.23;;;;;;;;;;5079059;28;20185;-70
2022/11/09 00:30:38;;;;;;;3.73;2.73;;;;;;;;;;5061025;28;20231;-71
2022/11/09 00:33:04;;;;;;;4.13;2.93;;;;;;;;;;5108262;22;20229;-65
2022/11/09 00:35:30;;;;;;;5.37;2.83;;;;;;;;;;5077169;28;20170;-65
2022/11/09 00:37:56;;;;;;;6.10;3.43;;;;;;;;;;5075638;28;20178;-65
2022/11/09 00:40:22;;;;;;;5.60;3.37;;;;;;;;;;5077115;28;20205;-65
2022/11/09 00:42:48;;;;;;;4.50;2.97;;;;;;;;;;5076619;28;20178;-66
2022/11/09 00:45:14;;;;;;;7.43;3.50;;;;;;;;;;5077304;28;20182;-65
2022/11/09 00:47:40;;;;;;;6.83;3.40;;;;;;;;;;5076761;28;20181;-65
2022/11/09 00:50:06;;;;;;;5.57;2.90;;;;;;;;;;5077008;28;20209;-65
2022/11/09 00:52:32;;;;;;;5.80;3.30;;;;;;;;;;5075238;28;20212;-65
2022/11/09 00:54:58;;;;;;;4.13;2.87;;;;;;;;;;5075242;28;20209;-66
2022/11/09 00:57:24;;;;;;;3.50;3.20;;;;;;;;;;5076602;28;20255;-65
2022/11/09 00:59:52;;;;;;;4.00;2.67;;;;;;;;;;5076402;28;20174;-65
2022/11/09 01:02:18;;;;;;;4.90;2.70;;;;;;;;;;5076347;28;20550;-65
2022/11/09 01:04:44;;;;;;;5.20;2.40;;;;;;;;;;5074931;28;20193;-65
2022/11/09 01:07:10;;;;;;;5.30;2.70;;;;;;;;;;5076427;28;20227;-65
2022/11/09 01:09:37;;;;;;;4.43;2.50;;;;;;;;;;5076600;28;20203;-65
2022/11/09 01:12:03;;;;;;;4.17;2.40;;;;;;;;;;5074919;28;20612;-65
2022/11/09 01:14:29;;;;;;;4.83;2.30;;;;;;;;;;5074916;28;20306;-65
2022/11/09 01:16:55;;;;;;;5.53;2.40;;;;;;;;;;5074799;28;20202;-65
2022/11/09 01:19:21;;;;;;;3.47;2.00;;;;;;;;;;5075288;28;20208;-65
2022/11/09 01:21:46;;;;;;;3.30;2.17;;;;;;;;;;5073638;28;20178;-65
2022/11/09 01:24:12;;;;;;;3.30;2.13;;;;;;;;;;5075822;28;20194;-65
2022/11/09 01:26:38;;;;;;;5.47;2.40;;;;;;;;;;5074501;28;20188;-65
2022/11/09 01:29:04;;;;;;;4.03;2.53;;;;;;;;;;5074655;28;20182;-65
2022/11/09 01:31:30;;;;;;;5.57;2.53;;;;;;;;;;5075900;28;20212;-65
2022/11/09 01:33:56;;;;;;;5.43;2.70;;;;;;;;;;5074328;28;20734;-65
2022/11/09 01:36:23;;;;;;;3.90;2.60;;;;;;;;;;5076057;28;20178;-65
2022/11/09 01:38:49;;;;;;;4.43;2.50;;;;;;;;;;5074410;28;20646;-65
2022/11/09 01:41:16;;;;;;;3.53;2.50;;;;;;;;;;5076047;28;20216;-65
2022/11/09 01:43:42;;;;;;;2.77;2.30;;;;;;;;;;5075489;28;20201;-64
2022/11/09 01:46:09;;;;;;;3.93;2.27;;;;;;;;;;5075569;28;20178;-65
2022/11/09 01:48:39;;;;;;;5.07;2.37;;;;;;;;;;5075977;28;20585;-66
2022/11/09 01:51:16;;;;;;;3.73;2.30;;;;;;;;;;5075406;28;20178;-66
2022/11/09 01:53:43;;;;;;;5.13;2.70;;;;;;;;;;5074074;28;20208;-65
2022/11/09 01:56:11;;;;;;;5.10;2.53;;;;;;;;;;5074181;28;20672;-65
2022/11/09 01:58:40;;;;;;;4.93;2.13;;;;;;;;;;5075704;28;20592;-64
2022/11/09 02:01:09;;;;;;;4.10;2.17;;;;;;;;;;5073839;28;20216;-65
2022/11/09 02:03:37;;;;;;;4.13;2.30;;;;;;;;;;5073839;28;20224;-65
2022/11/09 02:06:05;;;;;;;3.83;2.33;;;;;;;;;;5075128;28;20177;-66
2022/11/09 02:08:31;;;;;;;5.30;2.30;;;;;;;;;;5073640;28;20225;-65
2022/11/09 02:11:10;;;;;;;2.93;2.10;;;;;;;;;;5073739;28;20254;-65
2022/11/09 02:13:42;;;;;;;3.13;1.93;;;;;;;;;;5075566;28;20197;-66
2022/11/09 02:16:09;;;;;;;2.70;2.17;;;;;;;;;;5075235;28;20170;-66
2022/11/09 02:18:36;;;;;;;4.30;2.20;;;;;;;;;;5073517;28;20185;-65
2022/11/09 02:21:02;;;;;;;2.90;2.43;;;;;;;;;;5074748;28;20180;-65
2022/11/09 02:23:28;;;;;;;4.87;2.20;;;;;;;;;;5073553;28;20259;-65
2022/11/09 02:26:00;;;;;;;8.30;2.23;;;;;;;;;;5074719;28;20182;-66
2022/11/09 02:28:27;;;;;;;7.97;2.50;;;;;;;;;;5074886;28;20192;-65
2022/11/09 02:30:55;;;;;;;6.23;2.70;;;;;;;;;;5074560;28;20174;-65
2022/11/09 02:33:21;;;;;;;5.70;2.33;;;;;;;;;;5072972;28;20226;-65
2022/11/09 02:35:47;;;;;;;2.13;1.93;;;;;;;;;;5074793;28;20697;-65
2022/11/09 02:38:13;;;;;;;5.17;2.10;;;;;;;;;;5074418;28;20178;-65
2022/11/09 02:40:41;;;;;;;6.63;2.77;;;;;;;;;;5074353;28;20196;-65
2022/11/09 02:43:07;;;;;;;7.43;2.40;;;;;;;;;;5073166;28;20206;-65
2022/11/09 02:45:33;;;;;;;4.80;2.27;;;;;;;;;;5073533;28;20189;-66
2022/11/09 02:47:59;;;;;;;4.67;2.30;;;;;;;;;;5073415;28;20181;-65
2022/11/09 02:50:25;;;;;;;4.77;2.50;;;;;;;;;;5074686;28;20186;-65
2022/11/09 02:52:51;;;;;;;5.73;2.67;;;;;;;;;;5074123;28;20285;-66
2022/11/09 02:55:17;;;;;;;6.27;2.77;;;;;;;;;;5074474;28;20181;-66
2022/11/09 02:57:43;;;;;;;3.37;2.00;;;;;;;;;;5074258;28;20771;-67
2022/11/09 03:00:09;;;;;;;5.90;2.47;;;;;;;;;;5074199;28;20214;-66
2022/11/09 03:02:35;;;;;;;4.30;2.37;;;;;;;;;;5073056;28;20227;-65
2022/11/09 03:05:01;;;;;;;7.97;2.30;;;;;;;;;;5072799;28;20198;-66
2022/11/09 03:07:27;;;;;;;5.43;2.60;;;;;;;;;;5072833;28;20182;-66
2022/11/09 03:09:53;;;;;;;6.23;2.50;;;;;;;;;;5074257;28;20642;-66
2022/11/09 03:12:29;;;;;;;7.83;2.60;;;;;;;;;;5072585;28;20673;-65
2022/11/09 03:14:56;;;;;;;5.87;2.60;;;;;;;;;;5074118;28;20611;-64
2022/11/09 03:17:22;;;;;;;7.43;2.40;;;;;;;;;;5074639;28;20223;-66
2022/11/09 03:19:48;;;;;;;6.30;2.30;;;;;;;;;;5075190;28;20174;-65
2022/11/09 03:22:14;;;;;;;8.70;2.27;;;;;;;;;;5072978;28;20178;-66
2022/11/09 03:24:40;;;;;;;7.00;2.20;;;;;;;;;;5073058;28;20240;-65
2022/11/09 03:27:06;;;;;;;5.67;2.30;;;;;;;;;;5073864;28;20177;-65
2022/11/09 03:29:32;;;;;;;8.27;2.67;;;;;;;;;;5073012;28;20653;-66
2022/11/09 03:31:58;;;;;;;11.90;2.73;;;;;;;;;;5073001;28;20266;-66
2022/11/09 03:34:24;;;;;;;5.43;2.47;;;;;;;;;;5073934;28;20213;-66
2022/11/09 03:36:50;;;;;;;4.47;1.93;;;;;;;;;;5072702;28;20182;-66
2022/11/09 03:39:16;;;;;;;5.27;2.23;;;;;;;;;;5074042;28;20555;-66
2022/11/09 03:41:42;;;;;;;9.90;2.30;;;;;;;;;;5074466;28;20282;-67
2022/11/09 03:44:08;;;;;;;8.27;2.70;;;;;;;;;;5072962;28;20247;-66
2022/11/09 03:46:34;;;;;;;7.17;2.13;;;;;;;;;;5073287;28;20182;-66
2022/11/09 03:49:00;;;;;;;6.63;2.60;;;;;;;;;;5072207;28;20272;-66
2022/11/09 03:51:25;;;;;;;6.23;2.80;;;;;;;;;;5073268;28;20292;-66
2022/11/09 03:53:51;;;;;;;7.27;2.57;;;;;;;;;;5073295;28;20194;-66
2022/11/09 03:56:17;;;;;;;5.57;2.43;;;;;;;;;;5072295;28;20260;-66
2022/11/09 03:58:43;;;;;;;9.70;2.53;;;;;;;;;;5073216;28;20630;-66
2022/11/09 04:01:09;;;;;;;12.87;2.90;;;;;;;;;;5073145;28;20185;-66
2022/11/09 04:03:36;;;;;;;7.53;2.40;;;;;;;;;;5073041;28;20208;-66
2022/11/09 04:06:01;;;;;;;5.83;2.40;;;;;;;;;;5073556;28;20248;-66
2022/11/09 04:08:27;;;;;;;8.87;2.50;;;;;;;;;;5073111;28;20307;-64
2022/11/09 04:10:53;;;;;;;9.47;2.67;;;;;;;;;;5072162;28;20181;-66
2022/11/09 04:13:19;;;;;;;8.17;2.47;;;;;;;;;;5073766;28;20273;-66
2022/11/09 04:15:45;;;;;;;8.90;3.10;;;;;;;;;;5074944;28;20193;-66
2022/11/09 04:18:12;;;;;;;4.40;2.33;;;;;;;;;;5073424;28;20196;-66
2022/11/09 04:20:39;;;;;;;7.43;2.60;;;;;;;;;;5072178;28;20267;-66
2022/11/09 04:23:05;;;;;;;5.90;2.40;;;;;;;;;;5073714;28;20206;-66
2022/11/09 04:25:33;;;;;;;11.87;2.80;;;;;;;;;;5072313;28;20231;-66
2022/11/09 04:27:59;;;;;;;13.13;2.90;;;;;;;;;;5073403;28;20185;-66
2022/11/09 04:30:29;;;;;;;5.30;2.43;;;;;;;;;;5072873;28;20185;-66
2022/11/09 04:32:56;;;;;;;6.90;2.40;;;;;;;;;;5071445;28;20251;-67
2022/11/09 04:35:22;;;;;;;8.23;3.00;;;;;;;;;;5073260;28;20268;-66
2022/11/09 04:37:57;;;;;;;5.40;2.30;;;;;;;;;;5072793;28;20189;-66
2022/11/09 04:40:24;;;;;;;7.87;2.80;;;;;;;;;;5072687;28;20185;-65
2022/11/09 04:42:50;;;;;;;8.17;2.47;;;;;;;;;;5072682;28;20197;-65
2022/11/09 04:45:16;;;;;;;5.30;2.20;;;;;;;;;;5072654;28;20182;-66
2022/11/09 04:47:42;;;;;;;7.00;2.50;;;;;;;;;;5072637;28;20565;-66
2022/11/09 04:50:08;;;;;;;8.20;2.53;;;;;;;;;;5071342;28;20193;-66
2022/11/09 04:52:34;;;;;;;6.20;2.37;;;;;;;;;;5073111;28;20205;-65
2022/11/09 04:55:00;;;;;;;13.07;2.47;;;;;;;;;;5072797;28;20193;-66
2022/11/09 04:57:26;;;;;;;7.53;2.20;;;;;;;;;;5075043;28;20657;-65
2022/11/09 04:59:52;;;;;;;9.63;3.03;;;;;;;;;;5075321;28;20178;-66
2022/11/09 05:02:18;;;;;;;6.60;2.47;;;;;;;;;;5076309;28;20181;-66
2022/11/09 05:04:44;;;;;;;7.10;2.40;;;;;;;;;;5076309;28;20600;-66
2022/11/09 05:07:10;;;;;;;6.73;2.40;;;;;;;;;;5074932;28;20182;-66
2022/11/09 05:09:36;;;;;;;8.87;2.60;;;;;;;;;;5076166;28;20235;-66
2022/11/09 05:12:02;;;;;;;6.40;2.43;;;;;;;;;;5075965;28;20206;-65
2022/11/09 05:14:28;;;;;;;7.97;2.93;;;;;;;;;;5075992;28;20197;-67
2022/11/09 05:16:54;;;;;;;5.40;2.50;;;;;;;;;;5076312;28;20181;-67
2022/11/09 05:19:20;;;;;;;6.50;2.57;;;;;;;;;;5076155;28;20174;-66
2022/11/09 05:21:46;;;;;;;6.40;2.50;;;;;;;;;;5074874;28;20181;-67
2022/11/09 05:24:12;;;;;;;6.27;2.40;;;;;;;;;;5074808;28;20201;-67
2022/11/09 05:26:39;;;;;;;5.17;2.20;;;;;;;;;;5076542;28;20282;-68
2022/11/09 05:29:09;;;;;;;8.30;2.60;;;;;;;;;;5074613;28;20182;-67
2022/11/09 05:31:36;;;;;;;9.80;2.30;;;;;;;;;;5074560;28;20205;-66
2022/11/09 05:34:02;;;;;;;7.23;2.40;;;;;;;;;;5074372;28;20210;-67
2022/11/09 05:36:29;;;;;;;8.00;2.70;;;;;;;;;;5075845;28;20267;-66
2022/11/09 05:38:55;;;;;;;7.93;2.80;;;;;;;;;;5074356;28;20197;-67
2022/11/09 05:41:21;;;;;;;6.33;2.50;;;;;;;;;;5075837;28;20181;-67
2022/11/09 05:43:47;;;;;;;8.80;2.50;;;;;;;;;;5074194;28;20708;-67
2022/11/09 05:46:14;;;;;;;9.43;2.37;;;;;;;;;;5075523;28;20219;-66
2022/11/09 05:48:40;;;;;;;7.23;2.50;;;;;;;;;;5075952;28;20204;-65
2022/11/09 05:51:07;;;;;;;6.17;2.37;;;;;;;;;;5075350;28;20182;-67
2022/11/09 05:53:33;;;;;;;5.53;2.30;;;;;;;;;;5075668;28;20781;-66
2022/11/09 05:56:09;;;;;;;7.50;2.17;;;;;;;;;;5075359;28;20205;-66
2022/11/09 05:58:37;;;;;;;6.73;2.53;;;;;;;;;;5073990;28;20203;-65
2022/11/09 06:01:04;;;;;;;6.97;2.77;;;;;;;;;;5074090;28;20184;-66
2022/11/09 06:03:30;;;;;;;5.27;2.20;;;;;;;;;;5073948;28;20201;-66
2022/11/09 06:05:59;;;;;;;6.70;2.53;;;;;;;;;;5073424;28;20182;-66
2022/11/09 06:08:25;;;;;;;7.83;2.50;;;;;;;;;;5075236;28;20174;-66
2022/11/09 06:10:57;;;;;;;9.90;3.30;;;;;;;;;;5074915;28;20544;-66
2022/11/09 06:13:23;;;;;;;11.57;3.30;;;;;;;;;;5074775;28;20237;-66
2022/11/09 06:15:52;;;;;;;7.87;2.67;;;;;;;;;;5075000;28;20223;-65
2022/11/09 06:18:18;;;;;;;6.67;2.70;;;;;;;;;;5073588;28;20181;-66
2022/11/09 06:20:44;;;;;;;7.73;2.80;;;;;;;;;;5073551;28;20176;-65
2022/11/09 06:23:11;;;;;;;8.33;2.80;;;;;;;;;;5073208;28;20685;-65
2022/11/09 06:25:36;;;;;;;8.07;2.27;;;;;;;;;;5073342;28;20182;-65
2022/11/09 06:28:02;;;;;;;6.80;2.10;;;;;;;;;;5075060;28;20239;-65
2022/11/09 06:30:28;;;;;;;5.97;2.57;;;;;;;;;;5075647;28;20178;-66
2022/11/09 06:32:58;;;;;;;9.80;3.10;;;;;;;;;;5074748;28;20662;-66
2022/11/09 06:35:25;;;;;;;7.93;2.43;;;;;;;;;;5075188;28;20170;-66
2022/11/09 06:37:57;;;;;;;8.83;2.43;;;;;;;;;;5073295;28;20228;-65
2022/11/09 06:40:23;;;;;;;10.07;3.10;;;;;;;;;;5074420;28;20273;-66
2022/11/09 06:42:49;;;;;;;9.33;3.13;;;;;;;;;;5074649;28;20210;-65
2022/11/09 06:45:15;;;;;;;8.07;2.47;;;;;;;;;;5074288;28;20182;-66
2022/11/09 06:47:41;;;;;;;6.77;2.87;;;;;;;;;;5074000;28;20178;-66
2022/11/09 06:50:08;;;;;;;9.20;2.30;;;;;;;;;;5073415;28;20642;-66
2022/11/09 06:52:34;;;;;;;10.00;2.90;;;;;;;;;;5073915;28;20209;-66
2022/11/09 06:55:00;;;;;;;8.53;2.63;;;;;;;;;;5074415;28;20311;-66
2022/11/09 06:57:28;;;;;;;10.80;2.23;;;;;;;;;;5074735;28;20235;-66
2022/11/09 06:59:54;;;;;;;7.93;3.03;;;;;;;;;;5072958;28;20657;-66
2022/11/09 07:02:21;;;;;;;9.80;2.50;;;;;;;;;;5074701;28;20177;-65
2022/11/09 07:04:47;;;;;;;8.17;2.53;;;;;;;;;;5072892;28;20204;-66
2022/11/09 07:07:13;;;;;;;5.77;2.23;;;;;;;;;;5074674;28;20184;-65
2022/11/09 07:09:39;;;;;;;7.33;2.40;;;;;;;;;;5074217;28;20273;-63
2022/11/09 07:12:05;;;;;;;8.80;2.90;;;;;;;;;;5074534;28;20201;-65
2022/11/09 07:14:31;;;;;;;4.93;1.90;;;;;;;;;;5074444;28;20203;-65
2022/11/09 07:16:57;;;;;;;6.20;2.20;;;;;;;;;;5074645;28;20182;-65
2022/11/09 07:21:51;;;;;;;7.27;2.57;;;;;;;;;;5052759;28;20251;-71
2022/11/09 07:24:17;;;;;;;7.17;2.40;;;;;;;;;;5052371;28;20190;-72
2022/11/09 07:26:43;;;;;;;8.77;2.63;;;;;;;;;;5052541;28;20183;-73
2022/11/09 07:29:09;;;;;;;10.80;2.10;;;;;;;;;;5052366;28;20197;-72
2022/11/09 07:31:35;;;;;;;7.70;2.10;;;;;;;;;;5053548;28;20205;-72
2022/11/09 07:34:03;;;;;;;8.63;2.30;;;;;;;;;;5052301;28;20257;-71
2022/11/09 07:36:30;;;;;;;10.10;3.00;;;;;;;;;;5052278;28;20236;-71
2022/11/09 07:38:56;;;;;;;9.83;3.53;;;;;;;;;;5052332;28;20182;-71
2022/11/09 07:41:22;;;;;;;6.20;2.33;;;;;;;;;;5052253;28;20580;-72
2022/11/09 07:43:48;;;;;;;8.47;2.40;;;;;;;;;;5052209;28;20575;-72
2022/11/09 07:46:14;;;;;;;10.87;2.70;;;;;;;;;;5055776;28;20174;-71
2022/11/09 07:48:40;;;;;;;6.90;2.60;;;;;;;;;;5053785;28;20712;-72
2022/11/09 07:51:06;;;;;;;7.40;3.60;;;;;;;;;;5051859;28;20206;-72
2022/11/09 07:53:32;;;;;;;9.87;2.80;;;;;;;;;;5053496;28;20236;-72
2022/11/09 07:56:02;;;;;;;8.43;3.13;;;;;;;;;;5051919;28;20185;-72
2022/11/09 07:58:28;;;;;;;4.43;2.50;;;;;;;;;;5052117;28;20218;-72
2022/11/09 08:00:54;;;;;;;4.90;2.00;;;;;;;;;;5053169;28;20199;-71
2022/11/09 08:03:20;;;;;;;9.10;3.50;;;;;;;;;;5052105;28;20381;-72
2022/11/09 08:05:47;;;;;;;11.27;5.60;;;;;;;;;;5053651;28;20183;-71
2022/11/09 08:08:15;;;;;;;6.00;2.53;;;;;;;;;;5053196;28;20181;-72
2022/11/09 08:10:41;;;;;;;12.53;3.07;;;;;;;;;;5053261;28;20186;-72
2022/11/09 08:13:09;;;;;;;6.23;2.33;;;;;;;;;;5053002;28;20251;-71
2022/11/09 08:15:37;;;;;;;6.43;2.07;;;;;;;;;;5053260;28;20224;-72
2022/11/09 08:18:04;;;;;;;4.33;2.50;;;;;;;;;;5053503;28;20169;-72
2022/11/09 08:20:30;;;;;;;8.10;2.87;;;;;;;;;;5053071;28;20685;-72
2022/11/09 08:22:56;;;;;;;7.80;2.53;;;;;;;;;;5053160;28;20178;-72
2022/11/09 08:25:22;;;;;;;7.43;3.50;;;;;;;;;;5051875;28;20712;-72
2022/11/09 08:27:48;;;;;;;5.07;2.00;;;;;;;;;;5051846;28;20209;-72
2022/11/09 08:30:20;;;;;;;5.83;2.10;;;;;;;;;;5055093;28;20650;-72
2022/11/09 08:32:46;;;;;;;5.07;2.17;;;;;;;;;;5057233;28;20203;-72
2022/11/09 08:35:16;;;;;;;4.50;2.00;;;;;;;;;;5057118;28;20171;-71
2022/11/09 08:37:42;;;;;;;5.43;2.13;;;;;;;;;;5057656;28;20194;-71
2022/11/09 08:40:08;;;;;;;6.50;2.57;;;;;;;;;;5055968;28;20670;-72
2022/11/09 08:42:34;;;;;;;4.90;2.30;;;;;;;;;;5057014;28;20182;-72
2022/11/09 08:45:00;;;;;;;6.77;2.10;;;;;;;;;;5055776;28;20205;-72
2022/11/09 08:47:27;;;;;;;6.03;3.10;;;;;;;;;;5055692;28;20643;-71
2022/11/09 08:49:53;;;;;;;8.23;2.93;;;;;;;;;;5056726;28;20194;-71
2022/11/09 08:52:19;;;;;;;6.00;2.30;;;;;;;;;;5055558;28;20744;-71
2022/11/09 08:54:45;;;;;;;8.47;2.20;;;;;;;;;;5055435;28;20618;-72
2022/11/09 08:57:11;;;;;;;4.73;2.00;;;;;;;;;;5056993;28;20258;-72
2022/11/09 08:59:37;;;;;;;8.13;2.07;;;;;;;;;;5056750;28;20644;-71
2022/11/09 09:02:03;;;;;;;4.30;1.83;;;;;;;;;;5056928;28;20309;-71
2022/11/09 09:04:29;;;;;;;6.60;2.10;;;;;;;;;;5055320;28;20240;-70
2022/11/09 09:06:55;;;;;;;6.33;2.67;;;;;;;;;;5056299;28;20178;-72
2022/11/09 09:09:21;;;;;;;4.43;2.23;;;;;;;;;;5056126;28;20269;-71
2022/11/09 09:11:48;;;;;;;4.67;2.40;;;;;;;;;;5055066;28;20238;-71
2022/11/09 09:14:14;;;;;;;5.40;2.60;;;;;;;;;;5056157;28;20527;-71
2022/11/09 09:16:41;;;;;;;10.47;2.23;;;;;;;;;;5056063;28;20647;-71
2022/11/09 09:19:07;;;;;;;6.47;2.00;;;;;;;;;;5056343;28;20167;-71
2022/11/09 09:21:33;;;;;;;8.33;2.60;;;;;;;;;;5054648;28;20637;-72
2022/11/09 09:23:59;;;;;;;7.60;2.97;;;;;;;;;;5054725;28;20666;-72
2022/11/09 09:26:25;;;;;;;7.27;2.03;;;;;;;;;;5055912;28;20702;-72
2022/11/09 09:28:51;;;;;;;8.07;2.63;;;;;;;;;;5054612;28;20179;-72
2022/11/09 09:31:17;;;;;;;10.70;3.10;;;;;;;;;;5055229;28;20199;-72
2022/11/09 09:33:43;;;;;;;4.87;1.93;;;;;;;;;;5054628;28;20179;-71
2022/11/09 09:36:16;;;;;;;7.87;3.00;;;;;;;;;;5056071;28;20181;-70
2022/11/09 09:38:42;;;;;;;5.17;2.53;;;;;;;;;;5054394;28;20189;-71
2022/11/09 09:41:15;;;;;;;8.20;2.40;;;;;;;;;;5054664;28;20678;-71
2022/11/09 09:43:42;;;;;;;8.33;3.27;;;;;;;;;;5055746;28;20167;-71
2022/11/09 09:46:26;;;;;;;8.53;2.93;;;;;;;;;;5054362;28;20182;-71
2022/11/09 09:48:58;;;;;;;6.17;2.30;;;;;;;;;;5054321;28;20187;-71
2022/11/09 09:51:33;;;;;;;3.93;1.93;;;;;;;;;;5055398;28;20210;-71
2022/11/09 09:54:03;;;;;;;4.77;2.20;;;;;;;;;;5054278;28;20181;-71
2022/11/09 09:56:33;;;;;;;7.67;2.60;;;;;;;;;;5055421;28;20173;-71
2022/11/09 09:58:59;;;;;;;6.50;2.30;;;;;;;;;;5054100;28;20182;-71
2022/11/09 10:01:29;;;;;;;11.47;3.30;;;;;;;;;;5054007;28;20198;-69
2022/11/09 10:03:56;;;;;;;9.13;2.67;;;;;;;;;;5055182;28;20175;-67
2022/11/09 10:06:22;;;;;;;4.53;1.80;;;;;;;;;;5055136;28;20179;-71
2022/11/09 10:08:53;;;;;;;5.43;1.87;;;;;;;;;;5055208;28;20175;-69
2022/11/09 10:11:28;;;;;;;4.87;1.97;;;;;;;;;;5055273;28;20285;-69
2022/11/09 10:14:01;;;;;;;6.27;2.50;;;;;;;;;;5055122;28;20166;-69
2022/11/09 10:16:51;;;;;;;10.03;2.97;;;;;;;;;;5054090;28;20170;-71
2022/11/09 10:19:20;;;;;;;8.47;2.20;;;;;;;;;;5055433;28;20167;-70
2022/11/09 10:22:05;;;;;;;5.33;2.10;;;;;;;;;;5055794;28;20186;-70
2022/11/09 10:24:37;;;;;;;10.10;2.53;;;;;;;;;;5053766;28;20666;-70
2022/11/09 10:27:10;;;;;;;12.17;2.60;;;;;;;;;;5053518;28;20244;-69
2022/11/09 10:29:42;;;;;;;6.33;1.97;;;;;;;;;;5055030;28;20697;-70
2022/11/09 10:32:13;;;;;;;4.80;2.13;;;;;;;;;;5054622;28;20256;-70
2022/11/09 10:34:46;;;;;;;8.03;2.40;;;;;;;;;;5053358;28;20175;-70
2022/11/09 10:37:18;;;;;;;5.27;1.90;;;;;;;;;;5055073;28;20163;-70
2022/11/09 10:39:48;;;;;;;7.97;2.23;;;;;;;;;;5056402;28;20202;-70
2022/11/09 10:42:14;;;;;;;6.80;2.33;;;;;;;;;;5054911;28;20181;-70
2022/11/09 10:44:40;;;;;;;5.10;2.13;;;;;;;;;;5056042;28;20269;-70
2022/11/09 10:47:08;;;;;;;5.30;2.27;;;;;;;;;;5053715;28;20237;-70
2022/11/09 10:49:34;;;;;;;4.40;1.70;;;;;;;;;;5054697;28;20183;-70
2022/11/09 10:52:00;;;;;;;9.87;2.20;;;;;;;;;;5054592;28;20340;-70
2022/11/09 10:54:30;;;;;;;8.77;2.30;;;;;;;;;;5054331;28;20190;-69
2022/11/09 10:57:15;;;;;;;8.20;2.37;;;;;;;;;;5054405;28;20175;-69
2022/11/09 10:59:48;;;;;;;8.03;2.20;;;;;;;;;;5054103;28;20568;-69
2022/11/09 11:02:34;;;;;;;8.80;2.40;;;;;;;;;;5054199;28;20244;-69
2022/11/09 11:05:02;;;;;;;6.50;2.20;;;;;;;;;;5054482;28;20218;-69
2022/11/09 11:07:28;;;;;;;3.63;1.73;;;;;;;;;;5053239;28;20225;-71
2022/11/09 11:09:54;;;;;;;5.23;2.03;;;;;;;;;;5054210;28;20194;-70
2022/11/09 11:12:20;;;;;;;3.77;1.77;;;;;;;;;;5054031;28;20202;-70
2022/11/09 11:14:46;;;;;;;8.67;2.30;;;;;;;;;;5061405;28;20202;-70
2022/11/09 11:17:25;;;;;;;5.70;2.27;;;;;;;;;;5054688;28;20196;-70
2022/11/09 11:19:51;;;;;;;4.60;1.80;;;;;;;;;;5052633;28;20284;-71
2022/11/09 11:22:21;;;;;;;6.63;2.20;;;;;;;;;;5052683;28;20170;-70
2022/11/09 11:24:47;;;;;;;5.40;1.70;;;;;;;;;;5054144;28;20202;-69
2022/11/09 11:27:16;;;;;;;7.93;2.33;;;;;;;;;;5053931;28;20214;-70
2022/11/09 11:29:47;;;;;;;3.20;1.40;;;;;;;;;;5052383;28;20205;-69
2022/11/09 11:32:17;;;;;;;5.63;1.73;;;;;;;;;;5054129;28;20186;-68
2022/11/09 11:34:43;;;;;;;7.30;1.80;;;;;;;;;;5053563;28;20186;-69
2022/11/09 11:37:17;;;;;;;5.73;1.80;;;;;;;;;;5052236;28;20182;-69
2022/11/09 11:39:52;;;;;;;6.40;1.90;;;;;;;;;;5052690;28;20209;-68
2022/11/09 11:42:32;;;;;;;9.63;2.43;;;;;;;;;;5053872;28;20177;-68
2022/11/09 11:45:07;;;;;;;6.00;1.80;;;;;;;;;;5053691;28;20182;-69
2022/11/09 11:47:41;;;;;;;6.33;2.17;;;;;;;;;;5053699;28;20193;-69
2022/11/09 11:50:30;;;;;;;13.37;2.07;;;;;;;;;;5053374;28;20247;-68
2022/11/09 11:53:04;;;;;;;11.37;2.03;;;;;;;;;;5047844;28;20591;-69
2022/11/09 11:55:49;;;;;;;7.00;1.97;;;;;;;;;;5053605;28;20159;-69
2022/11/09 11:58:34;;;;;;;8.03;2.10;;;;;;;;;;5051987;28;20183;-69
2022/11/09 12:01:12;;;;;;;7.57;2.23;;;;;;;;;;5053430;28;20190;-69
2022/11/09 12:03:57;;;;;;;4.87;2.00;;;;;;;;;;5053493;28;20231;-69
2022/11/09 12:06:29;;;;;;;4.50;2.07;;;;;;;;;;5053161;28;20189;-69
2022/11/09 12:08:55;;;;;;;6.83;2.13;;;;;;;;;;5054826;28;20209;-69
2022/11/09 12:11:39;;;;;;;6.03;2.43;;;;;;;;;;5051601;28;20580;-68
2022/11/09 12:14:24;;;;;;;7.60;2.50;;;;;;;;;;5053070;28;20217;-68
2022/11/09 12:16:57;;;;;;;9.73;2.53;;;;;;;;;;5053445;28;20270;-68
2022/11/09 12:19:42;;;;;;;8.53;1.90;;;;;;;;;;5054068;28;20579;-68
2022/11/09 12:22:15;;;;;;;5.07;2.13;;;;;;;;;;5051810;28;20222;-67
2022/11/09 12:24:41;;;;;;;4.57;1.80;;;;;;;;;;5052977;28;20162;-68
2022/11/09 12:27:22;;;;;;;5.97;2.30;;;;;;;;;;5052963;28;20356;-68
2022/11/09 12:29:48;;;;;;;8.17;1.90;;;;;;;;;;5052012;28;20294;-68
2022/11/09 12:32:14;;;;;;;6.40;2.73;;;;;;;;;;5053018;28;20277;-68
2022/11/09 12:35:00;;;;;;;9.40;2.37;;;;;;;;;;5053182;28;20650;-68
2022/11/09 12:37:28;;;;;;;6.90;2.30;;;;;;;;;;5045624;28;20209;-68
2022/11/09 12:39:56;;;;;;;8.97;2.07;;;;;;;;;;5052973;28;20315;-68
2022/11/09 12:42:24;;;;;;;14.97;3.40;;;;;;;;;;5051292;28;20244;-68
2022/11/09 12:45:04;;;;;;;7.13;1.77;;;;;;;;;;5052820;28;20217;-67
2022/11/09 12:47:37;;;;;;;9.73;2.33;;;;;;;;;;5052790;28;20257;-68
2022/11/09 12:50:03;;;;;;;6.50;1.63;;;;;;;;;;5052958;28;20248;-68
2022/11/09 12:52:30;;;;;;;8.13;2.20;;;;;;;;;;5052617;28;20241;-69
2022/11/09 12:54:57;;;;;;;8.03;2.30;;;;;;;;;;5051399;28;20245;-68
2022/11/09 12:57:29;;;;;;;6.23;2.20;;;;;;;;;;5052549;28;20231;-68
2022/11/09 12:59:56;;;;;;;10.77;2.47;;;;;;;;;;5051338;28;20199;-68
2022/11/09 13:02:33;;;;;;;5.80;1.90;;;;;;;;;;5053322;28;20265;-68
2022/11/09 13:05:04;;;;;;;6.57;2.03;;;;;;;;;;5053735;28;20182;-68
2022/11/09 13:07:42;;;;;;;9.20;2.23;;;;;;;;;;5053462;28;20190;-68
2022/11/09 13:10:22;;;;;;;5.77;2.20;;;;;;;;;;5053882;28;20267;-68
2022/11/09 13:12:48;;;;;;;7.63;2.20;;;;;;;;;;5053222;28;20191;-68
2022/11/09 13:15:21;;;;;;;4.63;1.90;;;;;;;;;;5052057;28;20224;-68
2022/11/09 13:17:53;;;;;;;5.40;2.10;;;;;;;;;;5054202;28;20643;-68
2022/11/09 13:20:34;;;;;;;8.67;2.77;;;;;;;;;;5056260;28;20289;-68
2022/11/09 13:23:00;;;;;;;6.53;2.70;;;;;;;;;;5055007;28;20178;-68
2022/11/09 13:25:33;;;;;;;5.73;2.00;;;;;;;;;;5056277;28;20605;-69
2022/11/09 13:27:59;;;;;;;6.53;2.40;;;;;;;;;;5054966;28;20213;-69
2022/11/09 13:30:36;;;;;;;7.70;2.60;;;;;;;;;;5054652;28;20258;-69
2022/11/09 13:33:05;;;;;;;7.47;2.67;;;;;;;;;;5054853;28;20284;-69
2022/11/09 13:35:40;;;;;;;7.73;2.30;;;;;;;;;;5056323;28;20258;-69
2022/11/09 13:38:14;;;;;;;6.93;2.33;;;;;;;;;;5056524;28;20179;-69
2022/11/09 13:40:40;;;;;;;11.33;2.30;;;;;;;;;;5072092;22;20229;-66
2022/11/09 13:43:09;;;;;;;10.03;2.33;;;;;;;;;;5055816;28;20262;-65
2022/11/09 13:45:42;;;;;;;9.57;2.57;;;;;;;;;;5054762;28;20637;-66
2022/11/09 13:48:22;;;;;;;5.03;2.47;;;;;;;;;;5054777;28;20182;-66
2022/11/09 13:50:53;;;;;;;11.10;3.10;;;;;;;;;;5056354;28;20426;-67
2022/11/09 13:53:37;;;;;;;8.83;2.97;;;;;;;;;;5055878;28;20743;-64
2022/11/09 13:56:21;;;;;;;8.97;2.20;;;;;;;;;;5056923;28;20232;-66
2022/11/09 13:58:49;;;;;;;6.80;2.47;;;;;;;;;;5054465;28;20171;-67
2022/11/09 14:01:29;;;;;;;9.93;3.07;;;;;;;;;;5054014;28;20202;-67
2022/11/09 14:03:56;;;;;;;3.73;1.63;;;;;;;;;;5054140;28;20177;-67
2022/11/09 14:06:23;;;;;;;6.03;2.50;;;;;;;;;;5054200;28;20557;-67
2022/11/09 14:08:49;;;;;;;7.80;2.30;;;;;;;;;;5055720;28;20650;-66
2022/11/09 14:11:40;;;;;;;5.13;2.10;;;;;;;;;;5053744;28;20179;-66
2022/11/09 14:14:11;;;;;;;7.70;2.20;;;;;;;;;;5055500;28;20189;-67
2022/11/09 14:16:47;;;;;;;6.20;1.97;;;;;;;;;;5055107;28;20190;-66
2022/11/09 14:19:21;;;;;;;6.47;2.97;;;;;;;;;;5054922;28;20240;-65
2022/11/09 14:21:50;;;;;;;8.43;2.43;;;;;;;;;;5053712;28;20293;-68
2022/11/09 14:24:19;;;;;;;4.90;2.30;;;;;;;;;;5055148;28;20269;-68
2022/11/09 14:27:04;;;;;;;8.13;3.37;;;;;;;;;;5054601;28;20182;-65
2022/11/09 14:29:32;;;;;;;5.50;2.17;;;;;;;;;;5053216;28;20704;-67
2022/11/09 14:31:59;;;;;;;8.43;2.20;;;;;;;;;;5053096;28;20202;-67
2022/11/09 14:34:25;;;;;;;6.30;2.03;;;;;;;;;;5053209;28;20194;-66
2022/11/09 14:36:51;;;;;;;5.30;2.20;;;;;;;;;;5054364;28;20253;-65
2022/11/09 14:39:26;;;;;;;5.33;1.83;;;;;;;;;;5054148;28;20285;-66
2022/11/09 14:41:52;;;;;;;6.77;2.33;;;;;;;;;;5054226;28;20174;-66
2022/11/09 14:44:28;;;;;;;8.77;2.83;;;;;;;;;;5052947;28;20182;-65
2022/11/09 14:46:55;;;;;;;7.73;1.97;;;;;;;;;;5054295;28;20278;-66
2022/11/09 14:49:22;;;;;;;9.97;3.20;;;;;;;;;;5052728;28;20694;-66
2022/11/09 14:51:48;;;;;;;7.53;2.80;;;;;;;;;;5054267;28;20252;-64
2022/11/09 14:54:17;;;;;;;9.77;3.07;;;;;;;;;;5052742;28;20525;-66